createdAt,value
2022-07-30T00:01:22.969Z,6.75
2022-07-30T00:03:51.678Z,7.43
2022-07-30T00:06:19.245Z,7.25
2022-07-30T00:08:46.572Z,7.45
2022-07-30T00:11:15.371Z,7.75
2022-07-30T00:13:42.758Z,6.85
2022-07-30T00:16:10.142Z,6.95
2022-07-30T00:18:37.458Z,7.82
2022-07-30T00:21:05.976Z,7.72
2022-07-30T00:23:34.173Z,7.68
2022-07-30T00:26:01.565Z,7.72
2022-07-30T00:28:28.950Z,8.05
2022-07-30T00:30:56.387Z,7.72
2022-07-30T00:33:23.828Z,7.72
2022-07-30T00:35:51.182Z,7.45
2022-07-30T00:38:18.500Z,9.10
2022-07-30T00:40:49.196Z,8.65
2022-07-30T00:43:17.807Z,8.75
2022-07-30T00:45:45.755Z,8.40
2022-07-30T00:48:14.442Z,8.30
2022-07-30T00:50:41.967Z,8.48
2022-07-30T00:53:12.721Z,7.72
2022-07-30T00:55:40.171Z,8.65
2022-07-30T00:58:07.474Z,9.32
2022-07-30T01:00:36.798Z,9.00
2022-07-30T01:03:04.761Z,8.55
2022-07-30T01:05:32.338Z,9.65
2022-07-30T01:07:59.736Z,9.95
2022-07-30T01:10:27.056Z,14.10
2022-07-30T01:12:54.548Z,9.10
2022-07-30T01:15:22.379Z,10.52
2022-07-30T01:17:53.051Z,10.85
2022-07-30T01:20:29.791Z,9.30
2022-07-30T01:23:06.956Z,9.02
2022-07-30T01:25:52.649Z,10.02
2022-07-30T01:28:25.820Z,9.38
2022-07-30T01:30:55.835Z,9.05
2022-07-30T01:33:25.424Z,9.15
2022-07-30T01:35:55.734Z,9.38
2022-07-30T01:38:26.122Z,9.75
2022-07-30T01:40:54.467Z,9.23
2022-07-30T01:43:24.982Z,10.10
2022-07-30T01:45:53.597Z,10.00
2022-07-30T01:48:24.553Z,10.27
2022-07-30T01:50:55.124Z,10.52
2022-07-30T01:53:29.641Z,10.25
2022-07-30T01:55:59.731Z,10.27
2022-07-30T01:58:31.360Z,10.43
2022-07-30T02:01:05.937Z,9.25
2022-07-30T02:03:34.733Z,10.20
2022-07-30T02:06:09.694Z,10.48
2022-07-30T02:08:48.782Z,11.27
2022-07-30T02:11:39.013Z,11.30
2022-07-30T02:14:24.523Z,11.65
2022-07-30T02:16:56.268Z,10.93
2022-07-30T02:19:32.680Z,11.52
2022-07-30T02:22:08.671Z,11.45
2022-07-30T02:27:14.214Z,12.55
2022-07-30T02:29:44.373Z,11.85
2022-07-30T02:32:16.191Z,12.52
2022-07-30T02:34:49.217Z,14.20
2022-07-30T02:37:43.448Z,14.05
2022-07-30T02:40:14.194Z,14.07
2022-07-30T02:42:43.626Z,14.02
2022-07-30T02:45:17.743Z,14.18
2022-07-30T02:47:48.395Z,14.88
2022-07-30T02:50:17.874Z,15.82
2022-07-30T02:52:46.909Z,16.63
2022-07-30T02:55:15.864Z,17.48
2022-07-30T02:57:45.174Z,16.42
2022-07-30T03:00:13.559Z,17.35
2022-07-30T03:02:43.712Z,22.20
2022-07-30T03:05:13.716Z,19.83
2022-07-30T03:07:42.119Z,16.35
2022-07-30T03:10:11.398Z,17.80
2022-07-30T03:12:40.860Z,18.75
2022-07-30T03:15:08.864Z,18.60
2022-07-30T03:17:42.120Z,18.20
2022-07-30T03:20:12.291Z,17.13
2022-07-30T03:22:44.174Z,19.30
2022-07-30T03:25:16.454Z,19.40
2022-07-30T03:27:46.684Z,18.58
2022-07-30T03:30:14.381Z,19.67
2022-07-30T03:32:43.296Z,20.23
2022-07-30T03:35:17.503Z,20.30
2022-07-30T03:37:48.922Z,20.50
2022-07-30T03:40:17.128Z,19.67
2022-07-30T03:42:46.088Z,21.48
2022-07-30T03:45:18.696Z,21.20
2022-07-30T03:47:47.604Z,22.10
2022-07-30T03:50:15.506Z,21.67
2022-07-30T03:52:44.044Z,20.95
2022-07-30T03:55:17.247Z,23.77
2022-07-30T03:57:51.059Z,24.02
2022-07-30T04:00:23.418Z,24.27
2022-07-30T04:02:53.427Z,22.65
2022-07-30T04:05:41.043Z,23.33
2022-07-30T04:08:10.975Z,23.38
2022-07-30T04:10:39.422Z,23.98
2022-07-30T04:13:09.592Z,25.60
2022-07-30T04:16:36.981Z,25.33
2022-07-30T04:18:43.089Z,24.55
2022-07-30T04:21:16.043Z,25.23
2022-07-30T04:24:04.446Z,25.33
2022-07-30T04:26:36.196Z,26.33
2022-07-30T04:29:07.549Z,25.63
2022-07-30T04:31:40.051Z,24.63
2022-07-30T04:34:28.521Z,24.20
2022-07-30T04:36:55.866Z,24.50
2022-07-30T04:39:23.172Z,23.88
2022-07-30T04:41:50.520Z,22.90
2022-07-30T04:44:34.693Z,23.70
2022-07-30T04:47:24.562Z,24.10
2022-07-30T04:50:22.491Z,23.60
2022-07-30T04:52:52.363Z,24.02
2022-07-30T04:55:26.970Z,24.70
2022-07-30T04:57:55.023Z,25.30
2022-07-30T05:00:22.888Z,25.05
2022-07-30T05:02:53.776Z,24.75
2022-07-30T05:05:23.839Z,25.17
2022-07-30T05:07:51.567Z,24.67
2022-07-30T05:10:19.806Z,24.30
2022-07-30T05:12:47.107Z,24.20
2022-07-30T05:15:17.455Z,24.40
2022-07-30T05:17:45.200Z,24.10
2022-07-30T05:20:14.266Z,23.33
2022-07-30T05:23:00.971Z,22.58
2022-07-30T05:25:28.950Z,21.98
2022-07-30T05:28:06.647Z,22.52
2022-07-30T05:30:34.073Z,22.10
2022-07-30T05:33:03.663Z,21.63
2022-07-30T05:35:37.699Z,22.45
2022-07-30T05:38:05.703Z,22.23
2022-07-30T05:40:44.558Z,21.63
2022-07-30T05:43:31.810Z,20.45
2022-07-30T05:45:59.473Z,20.83
2022-07-30T05:48:28.004Z,19.65
2022-07-30T05:50:55.511Z,20.10
2022-07-30T05:53:23.833Z,18.27
2022-07-30T05:56:09.753Z,19.15
2022-07-30T05:58:55.110Z,18.20
2022-07-30T06:01:37.188Z,18.45
2022-07-30T06:04:12.533Z,16.67
2022-07-30T06:06:44.807Z,16.58
2022-07-30T06:09:12.307Z,15.55
2022-07-30T06:11:40.659Z,16.77
2022-07-30T06:14:08.043Z,15.77
2022-07-30T06:16:35.398Z,15.30
2022-07-30T06:19:02.869Z,14.57
2022-07-30T06:22:06.287Z,15.57
2022-07-30T06:24:36.427Z,14.75
2022-07-30T06:27:11.506Z,12.18
2022-07-30T06:29:39.743Z,11.57
2022-07-30T06:32:07.215Z,10.43
2022-07-30T06:34:34.824Z,10.25
2022-07-30T06:37:02.617Z,11.32
2022-07-30T06:39:53.882Z,11.07
2022-07-30T06:42:21.310Z,9.77
2022-07-30T06:45:09.658Z,10.07
2022-07-30T06:48:12.194Z,9.98
2022-07-30T06:50:41.440Z,10.18
2022-07-30T06:53:09.224Z,10.07
2022-07-30T06:56:08.600Z,9.68
2022-07-30T07:01:38.527Z,10.10
2022-07-30T07:04:06.078Z,9.60
2022-07-30T07:06:34.468Z,9.55
2022-07-30T07:09:02.309Z,9.15
2022-07-30T07:11:36.726Z,9.40
2022-07-30T07:14:09.199Z,8.18
2022-07-30T07:16:37.301Z,8.43
2022-07-30T07:20:01.002Z,9.15
2022-07-30T07:22:12.199Z,8.73
2022-07-30T07:24:40.559Z,8.48
2022-07-30T07:27:15.259Z,7.22
2022-07-30T07:30:05.004Z,8.02
2022-07-30T07:32:36.708Z,8.38
2022-07-30T07:35:05.803Z,7.53
2022-07-30T07:37:35.297Z,6.93
2022-07-30T07:40:04.360Z,7.88
2022-07-30T07:42:36.306Z,8.63
2022-07-30T07:45:04.211Z,7.20
2022-07-30T07:47:52.105Z,6.68
2022-07-30T07:50:43.813Z,6.70
2022-07-30T07:53:18.675Z,7.40
2022-07-30T07:55:46.627Z,6.72
2022-07-30T07:58:17.558Z,7.03
2022-07-30T08:00:53.714Z,6.13
2022-07-30T08:03:23.228Z,6.53
2022-07-30T08:05:56.980Z,6.28
2022-07-30T08:08:53.831Z,6.50
2022-07-30T08:11:43.758Z,6.93
2022-07-30T08:14:43.410Z,7.07
2022-07-30T08:17:29.313Z,6.80
2022-07-30T08:20:09.746Z,6.63
2022-07-30T08:22:37.928Z,6.47
2022-07-30T08:25:06.329Z,6.55
2022-07-30T08:27:34.695Z,6.25
2022-07-30T08:30:09.371Z,5.40
2022-07-30T08:32:36.951Z,6.88
2022-07-30T08:35:06.781Z,7.18
2022-07-30T08:37:34.792Z,6.38
2022-07-30T08:40:03.610Z,7.63
2022-07-30T08:42:35.008Z,6.30
2022-07-30T08:45:03.805Z,5.45
2022-07-30T08:47:36.013Z,5.63
2022-07-30T08:50:25.971Z,5.57
2022-07-30T08:53:11.006Z,5.50
2022-07-30T08:55:38.502Z,5.05
2022-07-30T08:58:35.034Z,5.43
2022-07-30T09:01:03.556Z,6.07
2022-07-30T09:03:31.134Z,5.68
2022-07-30T09:06:02.600Z,6.38
2022-07-30T09:08:30.985Z,5.97
2022-07-30T09:10:59.445Z,4.95
2022-07-30T09:13:30.104Z,4.95
2022-07-30T09:15:59.401Z,4.70
2022-07-30T09:18:37.457Z,5.90
2022-07-30T09:21:24.012Z,5.13
2022-07-30T09:24:12.207Z,4.68
2022-07-30T09:27:00.768Z,5.40
2022-07-30T09:29:59.403Z,5.00
2022-07-30T09:32:56.037Z,5.38
2022-07-30T09:35:43.042Z,5.13
2022-07-30T09:38:10.838Z,5.72
2022-07-30T09:40:58.277Z,5.60
2022-07-30T09:43:31.456Z,4.55
2022-07-30T09:46:11.875Z,6.15
2022-07-30T09:48:40.745Z,5.20
2022-07-30T09:51:15.699Z,4.85
2022-07-30T09:53:59.210Z,5.00
2022-07-30T09:56:30.351Z,3.95
2022-07-30T09:58:59.522Z,3.83
2022-07-30T10:01:49.531Z,4.07
2022-07-30T10:04:40.334Z,4.65
2022-07-30T10:07:25.315Z,4.07
2022-07-30T10:09:54.259Z,5.22
2022-07-30T10:12:23.978Z,4.28
2022-07-30T10:14:54.241Z,3.63
2022-07-30T10:17:22.649Z,3.67
2022-07-30T10:20:09.244Z,4.18
2022-07-30T10:22:55.999Z,3.75
2022-07-30T10:25:35.639Z,3.75
2022-07-30T10:28:28.841Z,3.10
2022-07-30T10:30:58.605Z,2.70
2022-07-30T10:33:34.865Z,3.20
2022-07-30T10:36:05.412Z,2.65
2022-07-30T10:38:39.541Z,3.53
2022-07-30T10:41:42.829Z,3.63
2022-07-30T10:44:30.381Z,3.42
2022-07-30T10:47:11.244Z,3.22
2022-07-30T10:49:41.724Z,2.65
2022-07-30T10:52:11.082Z,2.28
2022-07-30T10:54:47.436Z,2.30
2022-07-30T10:57:22.861Z,2.97
2022-07-30T10:59:58.570Z,2.30
2022-07-30T11:02:31.352Z,3.20
2022-07-30T11:05:43.876Z,2.88
2022-07-30T11:08:36.116Z,2.70
2022-07-30T11:11:19.243Z,2.13
2022-07-30T11:13:54.681Z,2.30
2022-07-30T11:16:24.223Z,2.72
2022-07-30T11:19:53.321Z,2.20
2022-07-30T11:22:28.209Z,2.40
2022-07-30T11:24:56.579Z,2.30
2022-07-30T11:27:45.694Z,2.42
2022-07-30T11:30:17.417Z,1.90
2022-07-30T11:32:52.950Z,2.83
2022-07-30T11:35:34.772Z,1.77
2022-07-30T11:38:07.422Z,2.13
2022-07-30T11:40:35.848Z,2.15
2022-07-30T11:43:36.173Z,2.10
2022-07-30T11:46:12.272Z,2.00
2022-07-30T11:49:00.534Z,2.20
2022-07-30T11:51:28.524Z,2.00
2022-07-30T11:54:07.282Z,2.10
2022-07-30T11:56:34.899Z,1.92
2022-07-30T11:59:07.324Z,1.90
2022-07-30T12:01:36.003Z,2.17
2022-07-30T12:04:06.689Z,1.90
2022-07-30T12:06:36.404Z,1.70
2022-07-30T12:09:03.879Z,1.90
2022-07-30T12:11:37.183Z,1.90
2022-07-30T12:14:04.893Z,1.70
2022-07-30T12:16:33.637Z,1.65
2022-07-30T12:19:05.467Z,1.75
2022-07-30T12:21:34.503Z,2.10
2022-07-30T12:24:04.496Z,1.42
2022-07-30T12:26:34.096Z,1.33
2022-07-30T12:29:10.070Z,1.40
2022-07-30T12:31:40.162Z,1.73
2022-07-30T12:34:24.481Z,1.88
2022-07-30T12:36:52.648Z,1.77
2022-07-30T12:39:25.582Z,1.70
2022-07-30T12:41:56.096Z,1.70
2022-07-30T12:44:49.063Z,1.80
2022-07-30T12:47:24.339Z,1.80
2022-07-30T12:49:57.454Z,1.92
2022-07-30T12:52:27.442Z,1.90
2022-07-30T12:55:09.439Z,1.50
2022-07-30T12:58:12.009Z,1.27
2022-07-30T13:00:52.011Z,1.52
2022-07-30T13:03:24.731Z,1.60
2022-07-30T13:05:55.634Z,1.33
2022-07-30T13:08:46.961Z,2.22
2022-07-30T13:11:15.185Z,1.88
2022-07-30T13:13:42.502Z,1.80
2022-07-30T13:16:09.986Z,1.50
2022-07-30T13:18:37.984Z,1.70
2022-07-30T13:21:09.139Z,1.77
2022-07-30T13:23:38.790Z,1.33
2022-07-30T13:26:08.089Z,1.95
2022-07-30T13:28:35.840Z,1.75
2022-07-30T13:31:03.777Z,1.40
2022-07-30T13:33:31.342Z,1.70
2022-07-30T13:35:59.224Z,1.63
2022-07-30T13:38:27.660Z,1.83
2022-07-30T13:40:59.094Z,1.60
2022-07-30T13:43:29.352Z,2.05
2022-07-30T13:46:01.774Z,1.88
2022-07-30T13:48:29.246Z,1.70
2022-07-30T13:50:56.692Z,1.48
2022-07-30T13:53:24.115Z,1.80
2022-07-30T13:55:51.593Z,2.30
2022-07-30T13:58:18.903Z,2.17
2022-07-30T14:00:48.080Z,1.80
2022-07-30T14:03:15.801Z,1.90
2022-07-30T14:05:44.314Z,2.25
2022-07-30T14:08:12.271Z,2.17
2022-07-30T14:10:40.562Z,1.90
2022-07-30T14:13:09.632Z,1.60
2022-07-30T14:15:37.610Z,1.63
2022-07-30T14:18:07.520Z,2.00
2022-07-30T14:20:35.145Z,2.15
2022-07-30T14:23:02.641Z,2.58
2022-07-30T14:25:30.283Z,2.00
2022-07-30T14:27:57.559Z,1.77
2022-07-30T14:30:25.079Z,1.58
2022-07-30T14:32:58.133Z,1.65
2022-07-30T14:35:27.896Z,1.98
2022-07-30T14:37:55.216Z,1.95
2022-07-30T14:40:22.791Z,1.98
2022-07-30T14:42:50.121Z,1.67
2022-07-30T14:45:17.459Z,2.08
2022-07-30T14:47:44.779Z,1.90
2022-07-30T14:50:12.399Z,1.90
2022-07-30T14:52:39.874Z,1.48
2022-07-30T14:55:08.307Z,1.40
2022-07-30T14:57:36.174Z,1.83
2022-07-30T15:00:08.436Z,2.45
2022-07-30T15:02:38.652Z,1.65
2022-07-30T15:05:06.995Z,1.60
2022-07-30T15:07:34.634Z,2.15
2022-07-30T15:10:02.601Z,1.95
2022-07-30T15:12:30.123Z,1.92
2022-07-30T15:14:57.490Z,1.90
2022-07-30T15:17:25.098Z,1.50
2022-07-30T15:19:52.628Z,1.95
2022-07-30T15:22:20.278Z,1.60
2022-07-30T15:24:48.629Z,1.90
2022-07-30T15:27:16.483Z,2.08
2022-07-30T15:29:44.475Z,1.67
2022-07-30T15:32:11.821Z,1.50
2022-07-30T15:34:39.132Z,1.70
2022-07-30T15:37:06.498Z,1.52
2022-07-30T15:39:34.180Z,2.90
2022-07-30T15:42:03.779Z,3.40
2022-07-30T15:44:31.754Z,2.15
2022-07-30T15:47:00.048Z,1.67
2022-07-30T15:49:28.093Z,1.77
2022-07-30T15:51:56.016Z,1.48
2022-07-30T15:54:24.791Z,1.70
2022-07-30T15:56:53.990Z,1.95
2022-07-30T15:59:22.247Z,1.88
2022-07-30T16:01:50.463Z,1.95
2022-07-30T16:04:19.391Z,1.45
2022-07-30T16:06:48.582Z,1.90
2022-07-30T16:09:16.521Z,1.80
2022-07-30T16:11:44.002Z,2.00
2022-07-30T16:14:11.359Z,2.10
2022-07-30T16:16:38.735Z,2.20
2022-07-30T16:19:06.081Z,2.20
2022-07-30T16:21:33.805Z,1.77
2022-07-30T16:24:01.539Z,2.03
2022-07-30T16:26:28.919Z,1.90
2022-07-30T16:28:56.295Z,2.00
2022-07-30T16:31:23.791Z,1.90
2022-07-30T16:33:51.083Z,1.83
2022-07-30T16:36:18.488Z,1.88
2022-07-30T16:38:45.791Z,2.10
2022-07-30T16:41:13.799Z,2.15
2022-07-30T16:43:41.376Z,2.20
2022-07-30T16:46:08.844Z,3.38
2022-07-30T16:48:36.280Z,2.92
2022-07-30T16:51:04.078Z,2.28
2022-07-30T16:53:31.488Z,1.90
2022-07-30T16:55:58.899Z,1.80
2022-07-30T16:58:30.867Z,2.28
2022-07-30T17:00:58.807Z,2.05
2022-07-30T17:03:26.613Z,1.60
2022-07-30T17:05:54.840Z,2.05
2022-07-30T17:08:24.921Z,2.30
2022-07-30T17:10:53.580Z,2.05
2022-07-30T17:13:21.258Z,2.13
2022-07-30T17:15:49.001Z,1.65
2022-07-30T17:18:16.647Z,2.00
2022-07-30T17:20:44.782Z,2.38
2022-07-30T17:23:12.526Z,2.53
2022-07-30T17:25:39.903Z,1.80
2022-07-30T17:28:07.314Z,1.83
2022-07-30T17:30:34.669Z,1.73
2022-07-30T17:33:02.084Z,1.50
2022-07-30T17:35:29.457Z,2.20
2022-07-30T17:37:56.768Z,2.00
2022-07-30T17:40:30.182Z,2.60
2022-07-30T17:43:04.051Z,2.05
2022-07-30T17:45:35.928Z,1.80
2022-07-30T17:48:04.872Z,2.20
2022-07-30T17:50:33.703Z,2.28
2022-07-30T17:53:03.461Z,2.13
2022-07-30T17:55:34.728Z,2.20
2022-07-30T17:58:05.685Z,2.15
2022-07-30T18:00:35.150Z,1.60
2022-07-30T18:03:03.617Z,1.98
2022-07-30T18:05:31.076Z,2.15
2022-07-30T18:07:58.395Z,2.25
2022-07-30T18:10:25.987Z,1.90
2022-07-30T18:12:53.369Z,1.88
2022-07-30T18:15:21.095Z,2.00
2022-07-30T18:17:48.633Z,2.22
2022-07-30T18:20:16.326Z,2.10
2022-07-30T18:22:43.716Z,2.20
2022-07-30T18:25:19.255Z,2.30
2022-07-30T18:27:48.102Z,2.00
2022-07-30T18:30:15.750Z,1.75
2022-07-30T18:32:44.405Z,1.95
2022-07-30T18:35:14.539Z,2.17
2022-07-30T18:37:43.686Z,2.45
2022-07-30T18:40:13.341Z,1.83
2022-07-30T18:42:40.885Z,2.00
2022-07-30T18:45:09.184Z,2.03
2022-07-30T18:47:36.533Z,2.20
2022-07-30T18:50:04.373Z,2.10
2022-07-30T18:52:31.835Z,1.85
2022-07-30T18:54:59.234Z,2.50
2022-07-30T18:57:26.671Z,1.90
2022-07-30T18:59:54.062Z,2.42
2022-07-30T19:02:25.462Z,2.28
2022-07-30T19:04:53.385Z,1.95
2022-07-30T19:07:21.162Z,1.83
2022-07-30T19:09:48.545Z,1.70
2022-07-30T19:12:16.530Z,2.05
2022-07-30T19:14:44.521Z,2.60
2022-07-30T19:17:13.979Z,2.35
2022-07-30T19:19:43.046Z,2.15
2022-07-30T19:22:10.473Z,2.08
2022-07-30T19:24:38.314Z,2.35
2022-07-30T19:27:11.057Z,1.90
2022-07-30T19:29:42.073Z,2.15
2022-07-30T19:32:09.612Z,1.98
2022-07-30T19:34:37.043Z,2.42
2022-07-30T19:37:04.531Z,2.20
2022-07-30T19:39:35.071Z,2.05
2022-07-30T19:42:03.040Z,1.90
2022-07-30T19:44:31.529Z,2.50
2022-07-30T19:46:59.906Z,2.60
2022-07-30T19:49:29.591Z,1.92
2022-07-30T19:52:10.133Z,1.98
2022-07-30T19:54:45.380Z,2.40
2022-07-30T19:57:12.979Z,2.33
2022-07-30T19:59:49.415Z,2.33
2022-07-30T20:02:27.373Z,2.03
2022-07-30T20:04:54.843Z,2.55
2022-07-30T20:07:23.282Z,3.78
2022-07-30T20:09:55.396Z,3.65
2022-07-30T20:12:24.295Z,2.60
2022-07-30T20:14:51.815Z,2.60
2022-07-30T20:17:19.176Z,2.50
2022-07-30T20:19:48.174Z,2.47
2022-07-30T20:22:16.580Z,3.08
2022-07-30T20:24:45.331Z,3.90
2022-07-30T20:27:35.942Z,2.92
2022-07-30T20:30:00.261Z,2.70
2022-07-30T20:32:29.195Z,2.20
2022-07-30T20:34:57.196Z,2.30
2022-07-30T20:37:27.546Z,1.85
2022-07-30T20:39:55.670Z,2.17
2022-07-30T20:42:24.176Z,2.03
2022-07-30T20:44:56.895Z,2.45
2022-07-30T20:47:34.862Z,2.42
2022-07-30T20:50:10.599Z,2.60
2022-07-30T20:52:40.403Z,2.72
2022-07-30T20:55:14.378Z,2.38
2022-07-30T20:57:57.301Z,2.50
2022-07-30T21:00:33.237Z,3.10
2022-07-30T21:03:03.313Z,2.80
2022-07-30T21:05:31.352Z,3.10
2022-07-30T21:07:58.859Z,2.85
2022-07-30T21:10:26.329Z,3.15
2022-07-30T21:13:02.935Z,2.60
2022-07-30T21:15:34.962Z,3.05
2022-07-30T21:18:03.731Z,3.28
2022-07-30T21:20:31.591Z,4.20
2022-07-30T21:23:10.070Z,2.85
2022-07-30T21:26:01.446Z,2.85
2022-07-30T21:28:29.193Z,2.70
2022-07-30T21:30:57.250Z,2.72
2022-07-30T21:33:31.180Z,3.28
2022-07-30T21:35:59.556Z,3.03
2022-07-30T21:38:27.683Z,2.78
2022-07-30T21:40:56.046Z,2.58
2022-07-30T21:43:29.456Z,2.38
2022-07-30T21:46:03.679Z,2.60
2022-07-30T21:48:33.921Z,2.50
2022-07-30T21:51:01.623Z,2.38
2022-07-30T21:53:45.221Z,2.50
2022-07-30T21:56:14.806Z,2.58
2022-07-30T21:58:43.419Z,2.90
2022-07-30T22:04:03.789Z,2.58
2022-07-30T22:06:40.490Z,2.28
2022-07-30T22:09:19.401Z,2.28
2022-07-30T22:12:00.873Z,2.20
2022-07-30T22:14:30.188Z,2.10
2022-07-30T22:16:59.073Z,2.67
2022-07-30T22:19:26.465Z,2.28
2022-07-30T22:21:54.844Z,2.38
2022-07-30T22:24:29.431Z,3.15
2022-07-30T22:27:10.879Z,3.25
2022-07-30T22:29:42.610Z,3.33
2022-07-30T22:32:11.159Z,3.55
2022-07-30T22:34:38.561Z,3.35
2022-07-30T22:37:09.098Z,4.05
2022-07-30T22:39:50.287Z,3.38
2022-07-30T22:42:24.354Z,3.50
2022-07-30T22:44:54.780Z,3.03
2022-07-30T22:47:51.230Z,3.10
2022-07-30T22:50:10.977Z,3.15
2022-07-30T22:52:40.042Z,2.97
2022-07-30T22:55:22.209Z,3.10
2022-07-30T22:57:50.118Z,3.40
2022-07-30T23:00:27.783Z,2.80
2022-07-30T23:02:57.529Z,3.55
2022-07-30T23:05:25.420Z,3.45
2022-07-30T23:07:53.560Z,3.47
2022-07-30T23:10:21.057Z,3.50
2022-07-30T23:12:31.101Z,2.40
2022-07-30T23:12:51.681Z,3.03
2022-07-30T23:15:20.169Z,3.75
2022-07-30T23:17:47.851Z,3.42
2022-07-30T23:20:17.862Z,2.85
2022-07-30T23:22:45.225Z,3.17
2022-07-30T23:25:13.856Z,2.90
2022-07-30T23:27:42.261Z,3.20
2022-07-30T23:30:11.266Z,2.85
2022-07-30T23:32:39.938Z,3.83
2022-07-30T23:35:08.933Z,2.97
2022-07-30T23:37:49.198Z,3.00
2022-07-30T23:40:19.636Z,3.08
2022-07-30T23:42:50.018Z,3.65
2022-07-30T23:45:18.492Z,3.33
2022-07-30T23:48:02.647Z,4.30
2022-07-30T23:50:32.509Z,3.67
2022-07-30T23:53:00.957Z,3.47
2022-07-30T23:55:29.749Z,4.20
2022-07-30T23:57:58.001Z,4.00
